BIENTÔT MET'MAP
version 2.0 !

Prévue avant fin octobre,
la nouvelle version sera
plus belle, plus complète
et hébergée sur un serveur
3 fois plus puissant...
et toujours gratuite !


Pas compatible ?
Essayez la version Mobile !

SE CONNECTER : | S'inscrire | Disclaimer | Découvrir Orbifly |
Code OACI :

TAF - EGHE Scilly Isles / St Mary's - 25 Feb 2020 00:51 UTC
Data Sources :     NOAA   


- Altitude de l'aérodrome : 116 ft
- Code IATA : ISC
- Pas de NOTAMs connus.


EGHE - Scilly Isles / St Mary's

Dernier METAR connu : 2015/08/11 07:50 EGHE 110750Z 32004KT 9999 FEW007 15/13 Q1020
Prévision TAF périmée.

Source NOAA


MET'MAP, la Météo Aéronautique d'un coup d'oeil ! - Copyright ORBIFLY Décembre 2007

Développement & Programmation : Alexandra Zaïnal
Co-Développement : Marc-Olivier Méhu
Soutien technique & logistique : Manuel Goepfert
Conception & Financement : Baudouin d'Aumeries